createdAt,value
2017-07-05T00:00:17.091Z,68.2
2017-07-05T00:00:57.576Z,68.59
2017-07-05T00:01:38.067Z,68.01
2017-07-05T00:02:18.560Z,68.49
2017-07-05T00:02:59.075Z,68.68
2017-07-05T00:03:39.596Z,68.78
2017-07-05T00:04:20.185Z,68.55
2017-07-05T00:05:00.657Z,68.49
2017-07-05T00:05:41.249Z,68.2
2017-07-05T00:06:21.781Z,68.01
2017-07-05T00:07:02.278Z,68.3
2017-07-05T00:07:42.739Z,68.1
2017-07-05T00:08:23.259Z,68.3
2017-07-05T00:09:03.748Z,68.3
2017-07-05T00:09:44.319Z,68.3
2017-07-05T00:10:24.862Z,68.3
2017-07-05T00:11:05.358Z,68.2
2017-07-05T00:11:45.837Z,68.3
2017-07-05T00:12:26.325Z,68.3
2017-07-05T00:13:06.871Z,68.3
2017-07-05T00:13:47.336Z,68.2
2017-07-05T00:14:27.867Z,68.3
2017-07-05T00:15:08.331Z,68.4
2017-07-05T00:15:48.927Z,68.1
2017-07-05T00:16:29.354Z,68.01
2017-07-05T00:17:09.927Z,68.01
2017-07-05T00:17:50.443Z,68.2
2017-07-05T00:18:31.609Z,68.01
2017-07-05T00:19:12.146Z,67.82
2017-07-05T00:19:52.613Z,68.17
2017-07-05T00:20:33.140Z,67.91
2017-07-05T00:21:13.661Z,68.1
2017-07-05T00:21:54.161Z,68.1
2017-07-05T00:22:34.700Z,67.88
2017-07-05T00:23:15.182Z,68.1
2017-07-05T00:23:55.673Z,68.01
2017-07-05T00:24:36.190Z,67.91
2017-07-05T00:25:16.646Z,68.01
2017-07-05T00:25:57.181Z,68.1
2017-07-05T00:26:37.715Z,68.1
2017-07-05T00:27:18.194Z,67.91
2017-07-05T00:27:58.694Z,67.72
2017-07-05T00:28:39.214Z,67.72
2017-07-05T00:29:19.715Z,68.3
2017-07-05T00:30:00.213Z,68.17
2017-07-05T00:30:40.727Z,68.01
2017-07-05T00:31:21.259Z,68.3
2017-07-05T00:33:13.875Z,68.2
2017-07-05T00:33:54.412Z,68.65
2017-07-05T00:34:34.931Z,68.26
2017-07-05T00:35:15.487Z,68.59
2017-07-05T00:35:55.999Z,68.1
2017-07-05T00:36:36.506Z,68.2
2017-07-05T00:37:17.028Z,68.59
2017-07-05T00:37:57.547Z,68.65
2017-07-05T00:38:38.078Z,68.26
2017-07-05T00:39:18.606Z,68.55
2017-07-05T00:39:59.129Z,68.84
2017-07-05T00:40:39.647Z,68.84
2017-07-05T00:41:20.170Z,68.65
2017-07-05T00:42:00.688Z,68.65
2017-07-05T00:42:41.380Z,68.75
2017-07-05T00:43:22.107Z,68.75
2017-07-05T00:44:02.632Z,68.55
2017-07-05T00:44:43.158Z,68.65
2017-07-05T00:45:23.668Z,68.65
2017-07-05T00:46:04.200Z,68.65
2017-07-05T00:46:44.726Z,69.42
2017-07-05T00:47:25.243Z,69.23
2017-07-05T00:48:05.764Z,69.32
2017-07-05T00:48:46.277Z,69.04
2017-07-05T00:49:26.804Z,69.04
2017-07-05T00:50:07.405Z,69.62
2017-07-05T00:50:47.935Z,69.13
2017-07-05T00:51:28.459Z,69.32
2017-07-05T00:52:08.989Z,69.13
2017-07-05T00:52:49.509Z,69.42
2017-07-05T00:53:30.027Z,68.84
2017-07-05T00:54:10.556Z,69.13
2017-07-05T00:54:51.370Z,69.04
2017-07-05T00:55:31.882Z,69.52
2017-07-05T00:56:12.450Z,69.13
2017-07-05T00:56:52.991Z,69.13
2017-07-05T00:57:33.473Z,69.32
2017-07-05T00:58:13.997Z,69.23
2017-07-05T00:58:54.518Z,69.04
2017-07-05T00:59:35.037Z,69.23
2017-07-05T01:00:15.598Z,69.42
2017-07-05T01:00:56.133Z,69.52
2017-07-05T01:01:36.665Z,69.9
2017-07-05T01:02:17.186Z,69.9
2017-07-05T01:02:57.815Z,69.9
2017-07-05T01:03:38.342Z,70
2017-07-05T01:04:18.865Z,69.9
2017-07-05T01:04:59.418Z,69.9
2017-07-05T01:05:39.939Z,69.9
2017-07-05T01:06:20.456Z,69.81
2017-07-05T01:07:00.980Z,69.81
2017-07-05T01:07:41.576Z,69.87
2017-07-05T01:08:22.094Z,70.39
2017-07-05T01:09:02.645Z,69.68
2017-07-05T01:09:43.164Z,69.9
2017-07-05T01:10:23.698Z,69.9
2017-07-05T01:11:04.194Z,69.81
2017-07-05T01:11:44.693Z,70.2
2017-07-05T01:12:25.262Z,69.52
2017-07-05T01:13:05.772Z,70
2017-07-05T01:13:46.312Z,69.71
2017-07-05T01:14:26.782Z,70
2017-07-05T01:15:07.285Z,69.9
2017-07-05T01:15:47.804Z,70.1
2017-07-05T01:16:28.500Z,69.9
2017-07-05T01:17:08.938Z,69.81
2017-07-05T01:17:49.459Z,69.9
2017-07-05T01:18:29.968Z,69.71
2017-07-05T01:19:10.507Z,69.71
2017-07-05T01:19:50.954Z,69.9
2017-07-05T01:20:31.486Z,69.81
2017-07-05T01:21:12.013Z,70.1
2017-07-05T01:21:52.508Z,70
2017-07-05T01:22:33.005Z,69.9
2017-07-05T01:23:13.486Z,70
2017-07-05T01:23:54.019Z,70.1
2017-07-05T01:24:34.536Z,70.1
2017-07-05T01:25:15.053Z,70.48
2017-07-05T01:25:55.535Z,70
2017-07-05T01:26:36.014Z,70.2
2017-07-05T01:27:16.538Z,69.9
2017-07-05T01:27:57.007Z,70.1
2017-07-05T01:28:37.519Z,69.87
2017-07-05T01:29:17.994Z,70.2
2017-07-05T01:29:58.512Z,70.29
2017-07-05T01:30:39.016Z,70.74
2017-07-05T01:31:19.557Z,70.54
2017-07-05T01:32:00.085Z,70.64
2017-07-05T01:32:40.577Z,70.54
2017-07-05T01:33:21.050Z,70.45
2017-07-05T01:34:01.544Z,70.54
2017-07-05T01:34:42.093Z,70.54
2017-07-05T01:35:22.585Z,70.54
2017-07-05T01:36:03.277Z,70.64
2017-07-05T01:36:43.785Z,71.12
2017-07-05T01:37:24.291Z,71.12
2017-07-05T01:38:04.785Z,71.42
2017-07-05T01:38:45.280Z,71.12
2017-07-05T01:39:25.769Z,71.12
2017-07-05T01:40:06.254Z,71.03
2017-07-05T01:40:46.798Z,71.51
2017-07-05T01:41:27.276Z,71.61
2017-07-05T01:42:07.795Z,71.9
2017-07-05T01:42:48.314Z,71.9
2017-07-05T01:43:28.864Z,71.61
2017-07-05T01:44:09.325Z,71.12
2017-07-05T01:44:49.985Z,71.32
2017-07-05T01:45:30.517Z,71.9
2017-07-05T01:46:10.970Z,71.12
2017-07-05T01:46:51.477Z,71.8
2017-07-05T01:47:31.997Z,71.9
2017-07-05T01:48:12.493Z,71.61
2017-07-05T01:48:53.063Z,71.8
2017-07-05T01:49:33.535Z,71.9
2017-07-05T01:50:14.046Z,71.61
2017-07-05T01:50:54.572Z,71.8
2017-07-05T01:51:35.159Z,72.19
2017-07-05T01:52:15.691Z,73.06
2017-07-05T01:52:56.227Z,72.86
2017-07-05T01:53:37.001Z,72.63
2017-07-05T01:54:17.486Z,73.25
2017-07-05T01:54:58.000Z,72.96
2017-07-05T01:55:38.538Z,73.25
2017-07-05T01:56:19.059Z,73.31
2017-07-05T01:56:59.534Z,73.15
2017-07-05T01:57:40.037Z,73.25
2017-07-05T01:58:20.553Z,73.15
2017-07-05T01:59:01.071Z,73.11
2017-07-05T01:59:41.600Z,73.06
2017-07-05T02:00:23.025Z,73.25
2017-07-05T02:01:03.549Z,73.31
2017-07-05T02:01:44.051Z,73.6
2017-07-05T02:02:24.544Z,73.6
2017-07-05T02:03:05.030Z,73.15
2017-07-05T02:03:45.641Z,73.31
2017-07-05T02:04:26.030Z,73.21
2017-07-05T02:05:06.528Z,73.11
2017-07-05T02:05:47.050Z,73.41
2017-07-05T02:06:27.560Z,73.21
2017-07-05T02:07:08.064Z,73.5
2017-07-05T02:07:48.574Z,73.6
2017-07-05T02:08:29.053Z,73.6
2017-07-05T02:09:09.579Z,73.69
2017-07-05T02:09:50.072Z,73.79
2017-07-05T02:10:30.612Z,74.08
2017-07-05T02:11:11.157Z,73.79
2017-07-05T02:11:51.699Z,73.11
2017-07-05T02:12:32.139Z,73.41
2017-07-05T02:13:12.678Z,73.31
2017-07-05T02:13:53.166Z,73.21
2017-07-05T02:14:33.675Z,73.41
2017-07-05T02:15:14.165Z,73.99
2017-07-05T02:15:54.666Z,73.99
2017-07-05T02:16:35.189Z,73.99
2017-07-05T02:17:15.923Z,73.89
2017-07-05T02:17:56.193Z,73.41
2017-07-05T02:18:36.703Z,73.6
2017-07-05T02:19:17.218Z,73.99
2017-07-05T02:19:57.704Z,73.6
2017-07-05T02:20:38.172Z,74.08
2017-07-05T02:21:18.731Z,73.69
2017-07-05T02:21:59.201Z,73.79
2017-07-05T02:22:39.949Z,73.21
2017-07-05T02:23:20.496Z,73.31
2017-07-05T02:24:00.945Z,73.5
2017-07-05T02:24:41.623Z,73.6
2017-07-05T02:25:22.151Z,73.89
2017-07-05T02:26:02.640Z,73.79
2017-07-05T02:26:43.113Z,73.89
2017-07-05T02:27:23.616Z,73.99
2017-07-05T02:28:04.145Z,74.27
2017-07-05T02:28:44.633Z,74.85
2017-07-05T02:29:25.149Z,74.57
2017-07-05T02:30:05.945Z,74.47
2017-07-05T02:30:46.538Z,74.37
2017-07-05T02:31:27.121Z,74.57
2017-07-05T02:32:07.603Z,74.66
2017-07-05T02:32:48.133Z,74.08
2017-07-05T02:33:28.701Z,74.14
2017-07-05T02:34:09.204Z,74.82
2017-07-05T02:34:49.703Z,74.18
2017-07-05T02:35:30.189Z,74.57
2017-07-05T02:36:10.720Z,74.18
2017-07-05T02:36:51.237Z,74.14
2017-07-05T02:37:31.865Z,74.27
2017-07-05T02:38:12.413Z,74.33
2017-07-05T02:38:52.969Z,74.72
2017-07-05T02:39:33.422Z,74.24
2017-07-05T02:40:13.967Z,74.52
2017-07-05T02:40:54.487Z,74.62
2017-07-05T02:41:34.974Z,75.01
2017-07-05T02:42:15.436Z,74.82
2017-07-05T02:42:56.622Z,75.1
2017-07-05T02:43:37.147Z,75.88
2017-07-05T02:44:17.636Z,75.78
2017-07-05T02:44:58.178Z,75.78
2017-07-05T02:45:38.615Z,75.3
2017-07-05T02:46:19.124Z,75.49
2017-07-05T02:46:59.608Z,75.4
2017-07-05T02:47:40.111Z,75.4
2017-07-05T02:48:20.596Z,74.91
2017-07-05T02:49:01.125Z,74.91
2017-07-05T02:49:41.571Z,74.91
2017-07-05T02:50:22.112Z,75.01
2017-07-05T02:51:02.607Z,75.1
2017-07-05T02:51:43.124Z,75.1
2017-07-05T02:52:24.514Z,75.01
2017-07-05T02:53:04.065Z,75.59
2017-07-05T02:53:44.569Z,75.2
2017-07-05T02:54:25.099Z,74.72
2017-07-05T02:55:05.569Z,74.82
2017-07-05T02:55:46.074Z,75.01
2017-07-05T02:56:26.566Z,75.2
2017-07-05T02:57:07.036Z,75.4
2017-07-05T02:57:47.532Z,75.1
2017-07-05T02:58:28.079Z,75.78
2017-07-05T02:59:08.569Z,75.49
2017-07-05T02:59:49.030Z,76.07
2017-07-05T03:00:29.559Z,75.78
2017-07-05T03:01:10.029Z,75.59
2017-07-05T03:01:50.704Z,76.36
2017-07-05T03:02:31.236Z,77
2017-07-05T03:03:11.691Z,76.9
2017-07-05T03:03:52.227Z,77.58
2017-07-05T03:04:32.693Z,77.76
2017-07-05T03:05:13.234Z,77.96
2017-07-05T03:05:53.758Z,77.67
2017-07-05T03:06:34.222Z,77.58
2017-07-05T03:07:14.717Z,77.71
2017-07-05T03:07:55.259Z,77.67
2017-07-05T03:08:35.785Z,77.42
2017-07-05T03:09:16.208Z,77.58
2017-07-05T03:09:56.716Z,77.42
2017-07-05T03:10:37.196Z,77.48
2017-07-05T03:11:17.715Z,76.93
2017-07-05T03:11:58.287Z,77.03
2017-07-05T03:12:38.758Z,76.84
2017-07-05T03:13:19.258Z,76.45
2017-07-05T03:13:59.775Z,76.65
2017-07-05T03:14:40.282Z,76.84
2017-07-05T03:15:20.765Z,76.55
2017-07-05T03:16:01.258Z,76.84
2017-07-05T03:16:42.016Z,76.75
2017-07-05T03:17:22.744Z,76.55
2017-07-05T03:18:03.253Z,76.26
2017-07-05T03:18:43.738Z,76.07
2017-07-05T03:19:24.224Z,76.07
2017-07-05T03:20:04.738Z,75.59
2017-07-05T03:20:45.329Z,75.3
2017-07-05T03:21:25.799Z,75.78
2017-07-05T03:22:06.319Z,75.78
2017-07-05T03:22:46.768Z,75.59
2017-07-05T03:23:27.271Z,75.36
2017-07-05T03:24:07.786Z,75.4
2017-07-05T03:24:48.268Z,75.1
2017-07-05T03:25:28.804Z,75.2
2017-07-05T03:26:09.407Z,74.82
2017-07-05T03:26:49.888Z,75.01
2017-07-05T03:27:30.399Z,75.78
2017-07-05T03:28:10.877Z,75.4
2017-07-05T03:28:51.378Z,75.59
2017-07-05T03:29:31.905Z,75.88
2017-07-05T03:30:12.403Z,75.16
2017-07-05T03:30:52.924Z,75.2
2017-07-05T03:31:33.375Z,74.88
2017-07-05T03:32:13.883Z,74.91
2017-07-05T03:32:54.433Z,74.82
2017-07-05T03:33:34.890Z,74.43
2017-07-05T03:34:15.413Z,74.72
2017-07-05T03:34:55.951Z,73.85
2017-07-05T03:35:36.422Z,74.72
2017-07-05T03:36:16.916Z,74.72
2017-07-05T03:36:57.524Z,74.82
2017-07-05T03:37:38.022Z,74.72
2017-07-05T03:38:18.522Z,74.72
2017-07-05T03:38:59.018Z,74.43
2017-07-05T03:39:39.512Z,74.33
2017-07-05T03:40:20.036Z,73.37
2017-07-05T03:41:00.585Z,73.66
2017-07-05T03:41:41.106Z,73.75
2017-07-05T03:42:21.620Z,73.75
2017-07-05T03:43:02.073Z,73.85
2017-07-05T03:43:42.589Z,73.47
2017-07-05T03:44:23.134Z,73.27
2017-07-05T03:45:03.637Z,73.18
2017-07-05T03:45:44.074Z,73.37
2017-07-05T03:46:24.592Z,73.27
2017-07-05T03:47:05.112Z,73.27
2017-07-05T03:47:45.610Z,73.57
2017-07-05T03:48:26.137Z,73.57
2017-07-05T03:49:06.674Z,72.89
2017-07-05T03:49:47.173Z,73.37
2017-07-05T03:50:27.625Z,73.27
2017-07-05T03:51:08.120Z,73.18
2017-07-05T03:51:48.680Z,73.18
2017-07-05T03:52:29.188Z,73.27
2017-07-05T03:53:09.666Z,72.69
2017-07-05T03:53:50.191Z,72.99
2017-07-05T03:54:30.989Z,72.69
2017-07-05T03:55:11.537Z,72.89
2017-07-05T03:55:52.045Z,72.41
2017-07-05T03:56:32.528Z,71.54
2017-07-05T03:57:13.000Z,71.92
2017-07-05T03:57:53.511Z,71.92
2017-07-05T03:58:34.069Z,71.92
2017-07-05T03:59:14.553Z,71.96
2017-07-05T03:59:55.066Z,71.83
2017-07-05T04:00:35.558Z,71.83
2017-07-05T04:01:16.085Z,71.73
2017-07-05T04:01:56.537Z,72.12
2017-07-05T04:02:37.009Z,71.83
2017-07-05T04:03:17.713Z,71.92
2017-07-05T04:03:58.323Z,72.41
2017-07-05T04:04:38.908Z,72.69
2017-07-05T04:05:19.385Z,72.6
2017-07-05T04:05:59.899Z,72.31
2017-07-05T04:06:40.383Z,72.02
2017-07-05T04:07:20.915Z,72.21
2017-07-05T04:08:01.493Z,71.73
2017-07-05T04:08:42.205Z,71.73
2017-07-05T04:09:22.766Z,71.73
2017-07-05T04:10:03.262Z,72.02
2017-07-05T04:10:43.763Z,71.92
2017-07-05T04:11:24.303Z,71.92
2017-07-05T04:12:04.759Z,71.77
2017-07-05T04:12:45.265Z,72.31
2017-07-05T04:13:25.797Z,71.92
2017-07-05T04:14:06.288Z,72.12
2017-07-05T04:14:47.041Z,71.83
2017-07-05T04:15:27.306Z,71.54
2017-07-05T04:16:07.953Z,71.73
2017-07-05T04:16:48.490Z,71.54
2017-07-05T04:17:29.154Z,71.38
2017-07-05T04:18:09.662Z,71.38
2017-07-05T04:18:50.297Z,71.83
2017-07-05T04:19:30.614Z,71.58
2017-07-05T04:20:11.142Z,71.73
2017-07-05T04:20:51.683Z,71.28
2017-07-05T04:21:32.149Z,71.28
2017-07-05T04:22:12.697Z,71.28
2017-07-05T04:22:53.171Z,71.28
2017-07-05T04:23:33.682Z,70.9
2017-07-05T04:24:14.177Z,71.19
2017-07-05T04:24:54.665Z,71.28
2017-07-05T04:25:35.225Z,71.19
2017-07-05T04:26:15.710Z,71.28
2017-07-05T04:26:56.165Z,71.48
2017-07-05T04:27:36.689Z,71.19
2017-07-05T04:28:17.211Z,71.19
2017-07-05T04:28:57.653Z,70.9
2017-07-05T04:29:38.166Z,71.28
2017-07-05T04:30:18.669Z,71.28
2017-07-05T04:30:59.152Z,71.38
2017-07-05T04:31:39.626Z,71.38
2017-07-05T04:32:20.119Z,71
2017-07-05T04:33:00.696Z,71
2017-07-05T04:33:41.222Z,71
2017-07-05T04:34:21.724Z,71.38
2017-07-05T04:35:02.341Z,71.09
2017-07-05T04:35:42.774Z,71.19
2017-07-05T04:36:23.331Z,71.09
2017-07-05T04:37:03.802Z,71.38
2017-07-05T04:37:44.356Z,71.09
2017-07-05T04:38:24.833Z,70.51
2017-07-05T04:39:05.357Z,70.61
2017-07-05T04:39:45.876Z,70.26
2017-07-05T04:40:26.342Z,69.78
2017-07-05T04:41:06.868Z,69.1
2017-07-05T04:41:47.360Z,68.75
2017-07-05T04:42:27.917Z,67.78
2017-07-05T04:43:08.363Z,67.78
2017-07-05T04:43:48.876Z,67.01
2017-07-05T04:44:29.383Z,66.36
2017-07-05T04:45:09.872Z,65.17
2017-07-05T04:45:50.392Z,63.18
2017-07-05T04:46:30.917Z,61.95
2017-07-05T04:47:11.392Z,61.76
2017-07-05T04:47:51.899Z,62.21
2017-07-05T04:48:32.419Z,63.05
2017-07-05T04:49:12.938Z,64.21
2017-07-05T04:49:53.394Z,64.56
2017-07-05T04:50:33.906Z,64.31
2017-07-05T04:51:14.386Z,63.43
2017-07-05T04:51:54.926Z,64.31
2017-07-05T04:52:35.379Z,64.59
2017-07-05T04:53:15.891Z,64.66
2017-07-05T04:53:56.389Z,65.2
2017-07-05T04:54:36.889Z,65.4
2017-07-05T04:55:17.379Z,66.66
2017-07-05T04:55:57.890Z,66.36
2017-07-05T04:56:38.498Z,66.66
2017-07-05T04:57:18.985Z,67.11
2017-07-05T04:57:59.498Z,67.33
2017-07-05T04:58:39.982Z,67.24
2017-07-05T04:59:20.489Z,66.85
2017-07-05T05:00:01.023Z,66.94
2017-07-05T05:00:41.499Z,66.94
2017-07-05T05:01:21.988Z,67.24
2017-07-05T05:02:02.499Z,66.94
2017-07-05T05:02:42.980Z,67.04
2017-07-05T05:03:23.558Z,66.66
2017-07-05T05:04:04.055Z,67.33
2017-07-05T05:04:44.577Z,66.94
2017-07-05T05:05:25.042Z,68.3
2017-07-05T05:06:05.577Z,71.3
2017-07-05T05:06:46.065Z,73.96
2017-07-05T05:07:26.560Z,75.93
2017-07-05T05:08:07.141Z,76.18
2017-07-05T05:08:47.647Z,75.51
2017-07-05T05:09:28.160Z,77.53
2017-07-05T05:10:08.679Z,77.67
2017-07-05T05:10:49.182Z,77.73
2017-07-05T05:11:29.666Z,77.44
2017-07-05T05:12:10.133Z,76.57
2017-07-05T05:12:50.638Z,77.15
2017-07-05T05:13:31.111Z,77.15
2017-07-05T05:14:11.590Z,77.67
2017-07-05T05:14:52.061Z,77.76
2017-07-05T05:15:32.585Z,79.02
2017-07-05T05:16:13.067Z,78.99
2017-07-05T05:16:53.588Z,76.86
2017-07-05T05:17:34.158Z,74.54
2017-07-05T05:18:14.587Z,75.54
2017-07-05T05:18:55.108Z,73.42
2017-07-05T05:19:35.563Z,72.94
2017-07-05T05:20:16.071Z,74.96
2017-07-05T05:20:56.578Z,74.87
2017-07-05T05:21:37.061Z,72.84
2017-07-05T05:22:17.557Z,73.61
2017-07-05T05:22:58.085Z,74.19
2017-07-05T05:23:38.612Z,75.54
2017-07-05T05:24:19.089Z,77.57
2017-07-05T05:24:59.589Z,73.03
2017-07-05T05:25:40.076Z,73.9
2017-07-05T05:26:20.595Z,73.22
2017-07-05T05:27:01.096Z,69.84
2017-07-05T05:27:41.628Z,73.03
2017-07-05T05:28:22.161Z,71.3
2017-07-05T05:29:02.649Z,71.3
2017-07-05T05:29:43.152Z,70.81
2017-07-05T05:30:23.805Z,73.22
2017-07-05T05:31:04.190Z,73.32
2017-07-05T05:31:44.838Z,73.52
2017-07-05T05:32:25.658Z,72.36
2017-07-05T05:33:06.023Z,71.3
2017-07-05T05:33:46.531Z,68.78
2017-07-05T05:34:27.026Z,70.81
2017-07-05T05:35:07.545Z,69.46
2017-07-05T05:35:48.034Z,68.2
2017-07-05T05:36:28.532Z,70.23
2017-07-05T05:37:09.043Z,68.68
2017-07-05T05:37:49.591Z,68.68
2017-07-05T05:38:30.128Z,69.74
2017-07-05T05:39:10.619Z,70.72
2017-07-05T05:39:51.118Z,69.84
2017-07-05T05:40:31.670Z,70.9
2017-07-05T05:41:12.163Z,70.42
2017-07-05T05:41:52.699Z,70.04
2017-07-05T05:42:33.203Z,69.84
2017-07-05T05:43:13.695Z,69.46
2017-07-05T05:43:54.210Z,70.42
2017-07-05T05:44:34.849Z,69.84
2017-07-05T05:45:15.433Z,70.65
2017-07-05T05:45:55.892Z,72.06
2017-07-05T05:46:36.409Z,71.2
2017-07-05T05:47:16.945Z,70.04
2017-07-05T05:47:57.456Z,69.78
2017-07-05T05:48:38.010Z,70.46
2017-07-05T05:49:18.494Z,72.74
2017-07-05T05:49:59.014Z,72.97
2017-07-05T05:50:39.548Z,73.8
2017-07-05T05:51:20.038Z,72.94
2017-07-05T05:52:00.645Z,71.23
2017-07-05T05:52:41.141Z,72
2017-07-05T05:53:21.664Z,71.91
2017-07-05T05:54:02.199Z,70.94
2017-07-05T05:54:42.799Z,70.94
2017-07-05T05:55:23.292Z,69.1
2017-07-05T05:56:03.813Z,71.62
2017-07-05T05:56:44.448Z,71.68
2017-07-05T05:57:24.977Z,71.23
2017-07-05T05:58:05.521Z,72.88
2017-07-05T05:58:46.064Z,73.33
2017-07-05T05:59:26.546Z,66.11
2017-07-05T06:00:07.056Z,63.78
2017-07-05T06:00:47.589Z,60.28
2017-07-05T06:01:28.111Z,60.82
2017-07-05T06:02:08.602Z,57.93
2017-07-05T06:02:49.127Z,56.57
2017-07-05T06:03:29.610Z,56.37
2017-07-05T06:04:10.131Z,56.27
2017-07-05T06:04:50.608Z,52.38
2017-07-05T06:05:31.121Z,55.6
2017-07-05T06:06:11.738Z,58.1
2017-07-05T06:06:52.165Z,56.35
2017-07-05T06:07:32.666Z,53.11
2017-07-05T06:08:13.214Z,62.03
2017-07-05T06:08:53.737Z,65.98
2017-07-05T06:09:34.220Z,63.75
2017-07-05T06:10:14.741Z,62.03
2017-07-05T06:10:55.268Z,61.74
2017-07-05T06:11:35.754Z,64.75
2017-07-05T06:12:16.249Z,67.47
2017-07-05T06:12:56.838Z,66.4
2017-07-05T06:13:37.359Z,63.39
2017-07-05T06:14:17.823Z,64.95
2017-07-05T06:14:58.365Z,63.68
2017-07-05T06:15:38.807Z,67.18
2017-07-05T06:16:19.344Z,65.53
2017-07-05T06:16:59.929Z,63.32
2017-07-05T06:17:40.447Z,56.61
2017-07-05T06:18:21.004Z,57.1
2017-07-05T06:19:01.491Z,59.72
2017-07-05T06:19:42.058Z,54.74
2017-07-05T06:20:22.571Z,56.87
2017-07-05T06:21:03.091Z,56.29
2017-07-05T06:21:43.610Z,61.93
2017-07-05T06:22:24.721Z,65.53
2017-07-05T06:23:05.183Z,59.43
2017-07-05T06:23:45.852Z,59.69
2017-07-05T06:24:26.257Z,62.16
2017-07-05T06:25:06.771Z,64.39
2017-07-05T06:25:47.442Z,61.18
2017-07-05T06:26:27.891Z,61.08
2017-07-05T06:27:08.449Z,66.05
2017-07-05T06:27:48.930Z,62.74
2017-07-05T06:28:29.460Z,62.57
2017-07-05T06:29:09.926Z,59.95
2017-07-05T06:29:50.448Z,56.57
2017-07-05T06:30:30.983Z,59.78
2017-07-05T06:31:11.483Z,63.16
2017-07-05T06:31:51.998Z,62.19
2017-07-05T06:32:32.530Z,62.67
2017-07-05T06:33:13.002Z,61.7
2017-07-05T06:33:53.481Z,62.09
2017-07-05T06:34:33.959Z,62.96
2017-07-05T06:35:14.473Z,61.21
2017-07-05T06:35:55.007Z,62.64
2017-07-05T06:36:35.461Z,62.93
2017-07-05T06:37:15.990Z,62.54
2017-07-05T06:37:56.518Z,60.7
2017-07-05T06:38:36.991Z,60.89
2017-07-05T06:39:17.505Z,61.67
2017-07-05T06:39:58.023Z,63.52
2017-07-05T06:40:38.544Z,63.9
2017-07-05T06:41:19.078Z,64.69
2017-07-05T06:41:59.630Z,62.06
2017-07-05T06:42:40.115Z,62.74
2017-07-05T06:43:20.598Z,64.1
2017-07-05T06:44:01.135Z,62.74
2017-07-05T06:44:41.635Z,62.38
2017-07-05T06:45:22.164Z,65.3
2017-07-05T06:46:02.675Z,65.88
2017-07-05T06:46:43.319Z,64.23
2017-07-05T06:47:23.835Z,65.5
2017-07-05T06:48:04.361Z,67.44
2017-07-05T06:48:44.826Z,61.9
2017-07-05T06:49:25.363Z,59.66
2017-07-05T06:50:05.816Z,58.42
2017-07-05T06:50:46.336Z,59.66
2017-07-05T06:51:26.876Z,60.82
2017-07-05T06:52:07.389Z,61.87
2017-07-05T06:52:47.868Z,58.75
2017-07-05T06:53:28.419Z,57.12
2017-07-05T06:54:08.937Z,61.96
2017-07-05T06:54:49.445Z,59.72
2017-07-05T06:55:29.990Z,61.8
2017-07-05T06:56:10.475Z,63.45
2017-07-05T06:56:51.007Z,64.91
2017-07-05T06:57:31.487Z,68.51
2017-07-05T06:58:11.977Z,69.06
2017-07-05T06:58:52.575Z,58.97
2017-07-05T06:59:33.087Z,61.7
2017-07-05T07:00:13.554Z,66.17
2017-07-05T07:00:54.067Z,69.48
2017-07-05T07:01:34.552Z,69.16
2017-07-05T07:02:15.050Z,63.32
2017-07-05T07:02:55.615Z,67.02
2017-07-05T07:03:36.084Z,67.5
2017-07-05T07:04:16.591Z,67.7
2017-07-05T07:04:57.125Z,64.1
2017-07-05T07:05:37.622Z,65.11
2017-07-05T07:06:18.156Z,63.84
2017-07-05T07:06:58.718Z,67.93
2017-07-05T07:07:39.271Z,66.76
2017-07-05T07:08:19.801Z,68.9
2017-07-05T07:09:00.310Z,58.1
2017-07-05T07:09:40.964Z,63.65
2017-07-05T07:10:21.460Z,70.46
2017-07-05T07:11:02.000Z,71.92
2017-07-05T07:11:42.519Z,64.81
2017-07-05T07:12:23.016Z,61.02
2017-07-05T07:13:03.518Z,64.91
2017-07-05T07:13:44.032Z,64.45
2017-07-05T07:14:24.592Z,62.9
2017-07-05T07:15:05.072Z,62.6
2017-07-05T07:15:45.582Z,58.42
2017-07-05T07:16:26.058Z,62.09
2017-07-05T07:17:06.604Z,61.15
2017-07-05T07:17:47.137Z,55.5
2017-07-05T07:18:27.636Z,65.14
2017-07-05T07:19:08.151Z,61.73
2017-07-05T07:19:48.682Z,65.92
2017-07-05T07:20:29.210Z,64.55
2017-07-05T07:21:09.759Z,63.48
2017-07-05T07:21:50.235Z,65.43
2017-07-05T07:22:30.736Z,67.08
2017-07-05T07:23:11.243Z,66.31
2017-07-05T07:23:51.743Z,65.3
2017-07-05T07:24:32.222Z,63.09
2017-07-05T07:25:12.745Z,62.22
2017-07-05T07:25:53.238Z,63.39
2017-07-05T07:26:33.715Z,63.97
2017-07-05T07:27:14.743Z,62.7
2017-07-05T07:27:55.379Z,61.83
2017-07-05T07:28:35.863Z,63.65
2017-07-05T07:29:16.356Z,62.9
2017-07-05T07:29:56.852Z,59.59
2017-07-05T07:30:37.372Z,56.37
2017-07-05T07:31:18.087Z,55.11
2017-07-05T07:31:58.565Z,58.81
2017-07-05T07:32:39.208Z,58.03
2017-07-05T07:33:19.729Z,58.71
2017-07-05T07:34:00.352Z,56.96
2017-07-05T07:34:40.796Z,57.96
2017-07-05T07:35:21.332Z,60.2
2017-07-05T07:36:01.872Z,61.93
2017-07-05T07:36:42.335Z,61.15
2017-07-05T07:37:22.842Z,61.93
2017-07-05T07:38:03.387Z,62.22
2017-07-05T07:38:43.904Z,59.49
2017-07-05T07:39:24.372Z,59.59
2017-07-05T07:40:04.941Z,58.03
2017-07-05T07:40:45.469Z,57.35
2017-07-05T07:41:26.088Z,55.5
2017-07-05T07:42:06.591Z,54.91
2017-07-05T07:42:47.083Z,58.32
2017-07-05T07:43:27.617Z,60.75
2017-07-05T07:44:08.265Z,62.6
2017-07-05T07:44:48.830Z,63.75
2017-07-05T07:45:29.364Z,63.75
2017-07-05T07:46:09.837Z,63.45
2017-07-05T07:46:50.428Z,64.04
2017-07-05T07:47:30.886Z,59.98
2017-07-05T07:48:11.436Z,60.95
2017-07-05T07:48:51.985Z,63.68
2017-07-05T07:49:32.490Z,62.48
2017-07-05T07:50:12.971Z,60.82
2017-07-05T07:50:53.543Z,61.02
2017-07-05T07:51:34.046Z,60.05
2017-07-05T07:52:14.534Z,59.75
2017-07-05T07:52:55.431Z,55.69
2017-07-05T07:53:35.600Z,58
2017-07-05T07:54:16.126Z,59.66
2017-07-05T07:54:56.831Z,61.21
2017-07-05T07:55:37.221Z,57.12
2017-07-05T07:56:17.759Z,61.63
2017-07-05T07:56:58.272Z,60.36
2017-07-05T07:57:38.791Z,60.08
2017-07-05T07:58:19.295Z,62.41
2017-07-05T07:58:59.726Z,63.97
2017-07-05T07:59:40.259Z,60.08
2017-07-05T08:00:20.806Z,60.46
2017-07-05T08:01:01.276Z,62.32
2017-07-05T08:01:41.876Z,60.95
2017-07-05T08:02:22.342Z,62.41
2017-07-05T08:03:02.845Z,63.68
2017-07-05T08:03:43.481Z,63.48
2017-07-05T08:04:23.960Z,63.97
2017-07-05T08:05:04.482Z,61.93
2017-07-05T08:05:44.998Z,61.05
2017-07-05T08:06:25.488Z,63.58
2017-07-05T08:07:06.012Z,60.39
2017-07-05T08:07:46.527Z,60
2017-07-05T08:08:27.106Z,56.6
2017-07-05T08:09:07.687Z,54.85
2017-07-05T08:09:48.139Z,52.5
2017-07-05T08:10:28.664Z,52.87
2017-07-05T08:11:09.172Z,52.6
2017-07-05T08:11:49.644Z,60.39
2017-07-05T08:12:30.182Z,62.63
2017-07-05T08:13:10.604Z,62.05
2017-07-05T08:13:51.146Z,60.98
2017-07-05T08:14:31.636Z,62.44
2017-07-05T08:15:12.194Z,61.37
2017-07-05T08:15:52.697Z,60
2017-07-05T08:16:33.199Z,62.44
2017-07-05T08:17:13.700Z,62.73
2017-07-05T08:17:54.223Z,62.54
2017-07-05T08:18:34.727Z,56.6
2017-07-05T08:19:15.235Z,61.27
2017-07-05T08:19:55.751Z,58.25
2017-07-05T08:20:36.291Z,54.65
2017-07-05T08:21:16.786Z,56.4
2017-07-05T08:21:57.246Z,58.74
2017-07-05T08:22:37.796Z,58.54
2017-07-05T08:23:18.297Z,58.94
2017-07-05T08:23:58.786Z,55.82
2017-07-05T08:24:39.334Z,53.87
2017-07-05T08:25:19.898Z,59.72
2017-07-05T08:26:00.402Z,60.39
2017-07-05T08:26:40.987Z,60.1
2017-07-05T08:27:21.462Z,61.37
2017-07-05T08:28:02.217Z,62.15
2017-07-05T08:28:42.743Z,63.42
2017-07-05T08:29:23.187Z,62.05
2017-07-05T08:30:03.716Z,61.96
2017-07-05T08:30:44.240Z,63.32
2017-07-05T08:31:24.752Z,63.71
2017-07-05T08:32:05.253Z,64.2
2017-07-05T08:32:45.767Z,59.49
2017-07-05T08:33:26.300Z,63.71
2017-07-05T08:34:07.668Z,65.23
2017-07-05T08:34:48.331Z,65.04
2017-07-05T08:35:28.809Z,64.45
2017-07-05T08:36:09.369Z,64.07
2017-07-05T08:36:49.875Z,65.33
2017-07-05T08:37:30.377Z,62.48
2017-07-05T08:38:10.892Z,64.81
2017-07-05T08:38:51.427Z,63.45
2017-07-05T08:39:31.902Z,66.08
2017-07-05T08:40:12.416Z,67.15
2017-07-05T08:40:52.873Z,63.65
2017-07-05T08:41:33.379Z,63.84
2017-07-05T08:42:13.914Z,65.79
2017-07-05T08:42:54.375Z,65.01
2017-07-05T08:43:34.872Z,60.24
2017-07-05T08:44:15.405Z,65.88
2017-07-05T08:44:55.923Z,65.98
2017-07-05T08:45:36.468Z,65.01
2017-07-05T08:46:17.020Z,62.96
2017-07-05T08:46:57.516Z,65.5